Time;durP1;ratioP1;P1;durP2;ratioP2;P2;SDS_P1;SDS_P2;PMS_P1;PMS_P2;Temp;Humidity;BMP_temperature;BMP_pressure;BME280_temperature;BME280_humidity;BME280_pressure;Samples;Min_cycle;Max_cycle;Signal;HPM_P1;HPM_P2
2022/09/21 00:01:28;;;;;;;5.87;4.20;;;;;;;11.52;68.74;100131.00;4361380;32;33465;-80
2022/09/21 00:03:58;;;;;;;6.07;4.12;;;;;;;11.67;68.32;100127.75;4360763;32;34406;-79
2022/09/21 00:06:28;;;;;;;5.78;4.37;;;;;;;11.77;67.58;100129.78;4360733;32;35130;-80
2022/09/21 00:08:55;;;;;;;7.45;4.40;;;;;;;11.66;67.91;100131.50;4361270;32;34059;-79
2022/09/21 00:11:26;;;;;;;6.32;4.30;;;;;;;11.01;70.34;100128.19;4347537;32;33507;-79
2022/09/21 00:13:56;;;;;;;6.57;4.75;;;;;;;11.60;68.27;100133.34;4361090;32;33921;-80
2022/09/21 00:16:24;;;;;;;6.15;4.37;;;;;;;11.76;67.59;100133.59;4360879;32;34977;-79
2022/09/21 00:18:51;;;;;;;6.07;4.22;;;;;;;11.68;67.80;100123.94;4361496;32;34892;-80
2022/09/21 00:21:20;;;;;;;5.68;4.35;;;;;;;11.44;68.76;100123.25;4362939;32;33468;-79
2022/09/21 00:24:06;;;;;;;6.20;4.65;;;;;;;11.32;69.46;100123.34;4362529;32;33916;-80
2022/09/21 00:26:34;;;;;;;6.35;4.25;;;;;;;11.41;69.49;100112.91;4362949;32;34787;-79
2022/09/21 00:29:02;;;;;;;5.03;3.90;;;;;;;11.22;70.29;100121.25;4349669;32;34300;-80
2022/09/21 00:31:30;;;;;;;5.20;4.03;;;;;;;11.25;70.14;100119.94;4362881;32;33737;-80
2022/09/21 00:33:59;;;;;;;5.60;4.47;;;;;;;11.24;70.29;100118.31;4362661;32;33879;-80
2022/09/21 00:36:27;;;;;;;6.57;4.32;;;;;;;10.99;71.35;100126.78;4362720;32;35044;-78
2022/09/21 00:38:56;;;;;;;5.80;4.28;;;;;;;11.00;71.63;100129.25;4362898;32;34214;-79
2022/09/21 00:41:25;;;;;;;5.55;4.15;;;;;;;10.96;72.09;100138.16;4362897;32;34428;-79
2022/09/21 00:44:31;;;;;;;5.80;3.97;;;;;;;11.58;69.34;100127.31;4362732;32;33831;-80
2022/09/21 00:47:08;;;;;;;4.87;4.00;;;;;;;11.64;68.22;100123.62;4319729;32;33708;-80
2022/09/21 00:49:37;;;;;;;6.22;4.18;;;;;;;11.45;68.71;100125.75;4349346;32;34279;-79
2022/09/21 00:52:05;;;;;;;6.78;3.92;;;;;;;11.48;68.60;100132.56;4349638;32;33868;-80
2022/09/21 00:54:42;;;;;;;6.05;4.28;;;;;;;11.55;67.83;100135.94;4349155;32;33740;-79
2022/09/21 00:57:10;;;;;;;5.05;4.10;;;;;;;11.41;68.85;100132.72;4362859;32;34061;-79
2022/09/21 00:59:38;;;;;;;6.03;4.32;;;;;;;11.32;68.90;100141.50;4362852;32;33951;-80
2022/09/21 01:02:06;;;;;;;5.28;4.00;;;;;;;11.25;68.91;100137.09;4349067;32;33526;-79
2022/09/21 01:04:35;;;;;;;4.70;3.80;;;;;;;11.20;69.12;100147.00;4349018;32;34759;-79
2022/09/21 01:07:05;;;;;;;6.43;4.40;;;;;;;11.14;69.20;100140.66;4349782;32;34192;-80
2022/09/21 01:09:33;;;;;;;6.07;4.07;;;;;;;11.00;69.83;100144.75;4349210;32;34079;-79
2022/09/21 01:12:17;;;;;;;6.43;4.18;;;;;;;11.45;68.42;100143.94;4349108;32;34291;-79
2022/09/21 01:14:49;;;;;;;5.12;3.92;;;;;;;11.34;68.43;100139.38;4362374;32;34335;-79
2022/09/21 01:17:33;;;;;;;6.95;3.92;;;;;;;11.09;68.78;100143.28;4349378;32;35092;-80
2022/09/21 01:20:07;;;;;;;6.35;4.60;;;;;;;11.33;68.14;100141.28;4362535;32;34249;-78
2022/09/21 01:23:06;;;;;;;6.43;4.68;;;;;;;11.17;68.58;100142.91;4362692;32;34900;-80
2022/09/21 01:25:33;;;;;;;5.32;3.90;;;;;;;11.36;67.82;100148.09;4362503;32;34799;-79
2022/09/21 01:28:51;;;;;;;5.78;4.25;;;;;;;11.00;69.00;100142.03;4362564;32;34207;-79
2022/09/21 01:31:25;;;;;;;6.45;3.97;;;;;;;10.69;70.47;100138.72;4301051;33;34259;-79
2022/09/21 01:33:58;;;;;;;4.95;3.60;;;;;;;10.54;70.93;100143.78;4340196;32;33539;-79
2022/09/21 01:36:28;;;;;;;5.32;3.80;;;;;;;10.83;70.01;100142.78;4349201;32;33992;-79
2022/09/21 01:39:02;;;;;;;5.10;4.00;;;;;;;10.34;71.74;100146.88;4349166;32;34273;-79
2022/09/21 01:41:31;;;;;;;5.75;4.10;;;;;;;10.74;70.75;100143.41;4349063;32;34275;-79
2022/09/21 01:44:07;;;;;;;5.22;3.78;;;;;;;10.80;70.37;100145.16;4362569;32;33809;-79
2022/09/21 01:46:36;;;;;;;4.57;3.70;;;;;;;10.68;70.54;100145.19;4349562;32;33570;-79
2022/09/21 01:49:09;;;;;;;6.07;4.18;;;;;;;10.62;71.15;100149.66;4349364;32;35048;-79
2022/09/21 01:51:42;;;;;;;5.05;3.70;;;;;;;11.00;69.86;100144.75;4348686;32;35107;-78
2022/09/21 01:54:14;;;;;;;6.00;4.22;;;;;;;10.83;70.13;100159.06;4348811;32;34462;-79
2022/09/21 01:56:50;;;;;;;4.57;3.50;;;;;;;10.76;70.03;100152.97;4348710;32;34646;-79
2022/09/21 01:59:20;;;;;;;4.70;3.75;;;;;;;10.73;70.35;100158.03;4362245;32;34653;-79
2022/09/21 02:01:52;;;;;;;6.28;3.95;;;;;;;10.87;69.56;100149.37;4349127;32;34240;-79
2022/09/21 02:04:20;;;;;;;5.50;4.10;;;;;;;10.82;69.83;100146.56;4361752;32;34471;-80
2022/09/21 02:06:48;;;;;;;5.15;3.50;;;;;;;11.33;68.37;100152.13;4362437;32;34830;-79
2022/09/21 02:09:16;;;;;;;6.55;4.10;;;;;;;10.67;70.56;100155.22;4349131;32;35097;-79
2022/09/21 02:11:44;;;;;;;6.25;4.05;;;;;;;10.81;70.47;100149.53;4362398;32;34748;-79
2022/09/21 02:14:17;;;;;;;5.62;4.18;;;;;;;10.75;70.91;100145.03;4362070;32;34509;-80
2022/09/21 02:16:44;;;;;;;5.75;4.43;;;;;;;11.26;69.16;100157.72;4348691;32;33621;-79
2022/09/21 02:19:30;;;;;;;7.10;4.05;;;;;;;11.31;69.19;100158.87;4362275;32;33999;-79
2022/09/21 02:22:06;;;;;;;4.65;3.53;;;;;;;11.35;69.05;100162.78;4348549;32;33901;-79
2022/09/21 02:24:40;;;;;;;5.32;3.83;;;;;;;10.74;71.40;100165.13;4348813;32;33130;-78
2022/09/21 02:27:24;;;;;;;7.80;4.23;;;;;;;10.46;72.11;100162.09;4348764;32;33894;-79
2022/09/21 02:30:15;;;;;;;5.90;3.97;;;;;;;10.91;70.97;100168.72;4362711;32;34248;-79
2022/09/21 02:33:12;;;;;;;6.37;4.18;;;;;;;11.50;68.96;100165.75;4348562;32;35014;-79
2022/09/21 02:35:54;;;;;;;6.97;4.30;;;;;;;11.37;69.50;100166.06;4361855;32;33445;-79
2022/09/21 02:38:41;;;;;;;5.72;4.07;;;;;;;10.84;70.73;100160.72;4348979;32;35000;-79
2022/09/21 02:41:19;;;;;;;4.72;3.65;;;;;;;11.37;69.30;100163.34;4361865;32;34147;-80
2022/09/21 02:43:51;;;;;;;5.40;3.90;;;;;;;11.36;69.22;100164.41;4348543;32;33792;-80
2022/09/21 02:46:35;;;;;;;5.53;4.00;;;;;;;11.28;69.22;100163.75;4348583;32;34391;-79
2022/09/21 02:49:10;;;;;;;5.60;3.95;;;;;;;11.49;68.45;100170.38;4348698;32;33998;-76
2022/09/21 02:51:46;;;;;;;5.50;3.75;;;;;;;10.90;70.64;100168.97;4348468;32;35081;-77
2022/09/21 02:54:17;;;;;;;5.40;4.00;;;;;;;11.01;70.43;100171.63;4348331;32;34782;-75
2022/09/21 02:56:47;;;;;;;5.97;4.37;;;;;;;10.40;72.40;100164.94;4361219;32;33776;-73
2022/09/21 02:59:15;;;;;;;5.97;4.07;;;;;;;10.77;70.38;100170.06;4340509;32;34049;-78
2022/09/21 03:01:43;;;;;;;5.35;3.90;;;;;;;10.67;71.69;100167.97;4348320;32;35081;-75
2022/09/21 03:04:10;;;;;;;6.68;4.28;;;;;;;11.07;70.09;100173.38;4348137;32;34996;-75
2022/09/21 03:06:38;;;;;;;6.45;3.75;;;;;;;11.37;68.81;100172.31;4361684;32;33726;-78
2022/09/21 03:09:05;;;;;;;4.87;3.83;;;;;;;11.53;67.80;100178.03;4362342;32;34042;-77
2022/09/21 03:11:34;;;;;;;6.05;4.07;;;;;;;10.90;70.10;100187.97;4360662;32;34253;-76
2022/09/21 03:14:07;;;;;;;6.18;4.07;;;;;;;10.76;70.96;100185.53;4361502;32;34753;-74
2022/09/21 03:16:35;;;;;;;6.97;4.30;;;;;;;10.94;70.66;100187.25;4349023;32;33767;-76
2022/09/21 03:19:04;;;;;;;6.75;4.30;;;;;;;10.93;70.45;100190.19;4348253;32;34064;-76
2022/09/21 03:21:31;;;;;;;6.45;4.20;;;;;;;10.80;71.11;100191.31;4345642;33;34259;-75
2022/09/21 03:23:59;;;;;;;5.78;4.10;;;;;;;10.59;72.12;100190.03;4346676;33;34901;-76
2022/09/21 03:26:26;;;;;;;5.68;4.47;;;;;;;11.31;69.01;100194.22;4346986;33;34902;-76
2022/09/21 03:28:54;;;;;;;5.55;4.35;;;;;;;11.22;68.82;100200.00;4347097;33;33705;-76
2022/09/21 03:31:21;;;;;;;5.25;3.60;;;;;;;11.09;69.98;100195.69;4349354;32;35313;-75
2022/09/21 03:33:49;;;;;;;5.75;4.37;;;;;;;11.04;70.17;100192.87;4352157;32;33972;-75
2022/09/21 03:36:17;;;;;;;6.95;4.57;;;;;;;10.63;71.51;100193.94;4346467;33;35141;-78
2022/09/21 03:38:44;;;;;;;5.97;4.00;;;;;;;10.96;70.70;100189.72;4346780;33;33997;-74
2022/09/21 03:41:14;;;;;;;7.28;4.57;;;;;;;10.96;70.61;100195.16;4346694;33;33946;-76
2022/09/21 03:43:41;;;;;;;6.68;4.47;;;;;;;10.99;70.34;100189.22;4346696;33;34013;-75
2022/09/21 03:46:08;;;;;;;6.65;4.50;;;;;;;10.46;71.73;100191.12;4346427;33;33581;-75
2022/09/21 03:48:36;;;;;;;5.57;4.22;;;;;;;10.45;72.04;100190.28;4346679;33;33840;-75
2022/09/21 03:51:04;;;;;;;6.28;4.18;;;;;;;10.65;71.54;100194.53;4346483;33;34310;-75
2022/09/21 03:53:31;;;;;;;5.30;4.32;;;;;;;10.72;71.16;100195.22;4347136;33;34137;-76
2022/09/21 03:55:59;;;;;;;5.95;4.70;;;;;;;11.25;69.30;100202.28;4351714;33;33396;-76
2022/09/21 03:58:26;;;;;;;5.93;4.28;;;;;;;11.73;66.79;100210.16;4351242;33;34930;-75
2022/09/21 04:01:00;;;;;;;6.75;4.65;;;;;;;11.50;67.12;100210.06;4351245;33;33943;-74
2022/09/21 04:03:28;;;;;;;5.90;4.32;;;;;;;11.73;66.13;100213.75;4351353;33;34354;-76
2022/09/21 04:05:56;;;;;;;7.28;5.20;;;;;;;11.73;65.76;100213.75;4351177;33;34441;-78
2022/09/21 04:08:23;;;;;;;5.78;4.40;;;;;;;10.90;68.51;100213.22;4351419;33;34051;-76
2022/09/21 04:10:50;;;;;;;6.70;4.80;;;;;;;11.28;67.62;100211.81;4351259;33;34225;-77
2022/09/21 04:13:18;;;;;;;6.20;4.78;;;;;;;11.28;67.82;100209.91;4346260;33;161201;-75
2022/09/21 04:15:45;;;;;;;6.90;5.05;;;;;;;11.35;67.47;100219.81;4350895;33;33562;-76
2022/09/21 04:18:13;;;;;;;7.00;4.75;;;;;;;11.44;66.84;100216.47;4351288;33;33658;-75
2022/09/21 04:20:41;;;;;;;6.32;4.78;;;;;;;10.87;68.57;100221.84;4352533;32;34828;-75
2022/09/21 04:23:08;;;;;;;7.05;4.70;;;;;;;11.08;67.85;100217.69;4365624;32;34166;-76
2022/09/21 04:25:36;;;;;;;7.07;4.80;;;;;;;11.50;65.99;100228.25;4365792;32;34517;-76
2022/09/21 04:28:03;;;;;;;6.93;4.60;;;;;;;11.26;66.52;100220.19;4366154;32;33130;-76
2022/09/21 04:30:32;;;;;;;7.93;4.75;;;;;;;11.24;66.96;100224.22;4365800;32;33817;-75
2022/09/21 04:33:04;;;;;;;6.95;5.32;;;;;;;11.13;68.09;100227.81;4365984;32;34713;-75
2022/09/21 04:35:32;;;;;;;5.80;4.62;;;;;;;10.97;68.55;100229.38;4352205;32;33345;-76
2022/09/21 04:37:59;;;;;;;10.05;5.60;;;;;;;11.01;68.67;100225.12;4365126;32;33101;-74
2022/09/21 04:40:27;;;;;;;6.45;4.95;;;;;;;10.37;70.83;100225.09;4365704;32;34216;-77
2022/09/21 04:42:55;;;;;;;8.18;5.25;;;;;;;10.40;71.13;100230.84;4365468;32;34221;-75
2022/09/21 04:45:22;;;;;;;8.68;5.40;;;;;;;10.21;72.09;100229.28;4365411;32;34374;-76
2022/09/21 04:47:49;;;;;;;8.02;5.18;;;;;;;10.44;71.43;100236.63;4365798;32;34661;-76
2022/09/21 04:50:18;;;;;;;7.50;5.30;;;;;;;10.37;72.04;100236.75;4365603;32;34049;-74
2022/09/21 04:52:46;;;;;;;7.20;5.25;;;;;;;10.56;71.65;100240.19;4365559;32;34231;-76
2022/09/21 04:55:14;;;;;;;7.22;5.20;;;;;;;10.16;73.13;100235.41;4365375;32;34408;-76
2022/09/21 04:57:41;;;;;;;8.25;5.60;;;;;;;10.64;71.71;100242.50;4351807;32;34024;-73
2022/09/21 05:00:09;;;;;;;6.75;5.40;;;;;;;10.24;72.82;100245.09;4365597;32;34062;-76
2022/09/21 05:02:37;;;;;;;8.02;5.75;;;;;;;9.93;73.82;100244.31;4365171;32;34266;-75
2022/09/21 05:05:04;;;;;;;6.62;5.43;;;;;;;9.59;75.95;100251.28;4363969;32;33841;-76
2022/09/21 05:07:32;;;;;;;8.65;6.05;;;;;;;9.74;74.96;100251.72;4361890;32;34649;-75
2022/09/21 05:10:02;;;;;;;7.82;5.90;;;;;;;9.94;74.51;100251.41;4362863;32;35039;-75
2022/09/21 05:12:31;;;;;;;7.87;5.85;;;;;;;10.50;71.81;100251.16;4364117;32;34726;-77
2022/09/21 05:14:59;;;;;;;7.60;5.82;;;;;;;10.58;71.65;100243.50;4375882;32;34370;-77
2022/09/21 05:17:27;;;;;;;7.93;5.78;;;;;;;10.85;70.29;100251.94;4377719;32;34813;-76
2022/09/21 05:19:54;;;;;;;8.32;6.15;;;;;;;10.22;73.29;100252.62;4372328;32;35128;-76
2022/09/21 05:22:22;;;;;;;7.37;5.80;;;;;;;10.77;70.81;100251.47;4355033;32;34847;-76
2022/09/21 05:24:49;;;;;;;8.07;6.18;;;;;;;10.68;71.71;100248.31;4347774;32;33305;-75
2022/09/21 05:27:17;;;;;;;10.55;6.35;;;;;;;10.30;73.36;100252.28;4347528;32;34684;-76
2022/09/21 05:29:45;;;;;;;7.90;6.05;;;;;;;10.60;72.25;100256.78;4347708;33;35196;-77
2022/09/21 05:32:26;;;;;;;9.80;7.40;;;;;;;10.84;71.23;100253.03;4347573;33;34852;-76
2022/09/21 05:35:15;;;;;;;10.65;7.05;;;;;;;10.98;70.71;100263.63;4334048;33;33423;-76
2022/09/21 05:38:03;;;;;;;7.85;6.47;;;;;;;10.96;71.01;100268.47;4346886;32;34751;-76
2022/09/21 05:40:31;;;;;;;9.15;6.93;;;;;;;10.93;71.19;100266.19;4361747;32;34244;-76
2022/09/21 05:42:59;;;;;;;7.82;6.45;;;;;;;11.08;71.86;100261.94;4362439;32;34967;-76
2022/09/21 05:45:27;;;;;;;8.63;6.07;;;;;;;11.38;69.50;100274.50;4362326;32;33170;-76
2022/09/21 05:48:04;;;;;;;8.13;5.87;;;;;;;11.62;69.22;100271.69;4354630;32;34418;-76
2022/09/21 05:50:47;;;;;;;6.53;5.30;;;;;;;11.93;68.14;100272.28;4357979;32;35092;-77
2022/09/21 05:53:52;;;;;;;7.78;6.12;;;;;;;12.14;65.83;100277.00;4353866;32;34006;-75
2022/09/21 05:56:41;;;;;;;7.57;5.90;;;;;;;11.70;67.62;100274.84;4347066;32;33804;-76
2022/09/21 05:59:11;;;;;;;7.35;5.82;;;;;;;11.94;66.20;100271.22;4347659;33;33633;-76
2022/09/21 06:02:00;;;;;;;9.23;5.75;;;;;;;11.64;67.21;100278.53;4348214;32;34825;-78
2022/09/21 06:04:28;;;;;;;7.85;6.28;;;;;;;11.79;66.52;100286.16;4346743;32;33898;-76
2022/09/21 06:06:55;;;;;;;8.10;6.60;;;;;;;11.52;67.46;100282.38;4352834;32;32212;-76
2022/09/21 06:09:24;;;;;;;7.87;6.28;;;;;;;11.38;69.16;100289.97;4353659;32;33553;-77
2022/09/21 06:11:52;;;;;;;8.73;6.97;;;;;;;11.66;68.30;100283.72;4353183;32;34989;-74
2022/09/21 06:14:24;;;;;;;8.75;6.70;;;;;;;11.68;67.56;100285.16;4350372;32;34912;-77
2022/09/21 06:16:52;;;;;;;9.30;6.70;;;;;;;11.43;68.28;100287.38;4349086;32;34565;-78
2022/09/21 06:19:19;;;;;;;9.68;7.47;;;;;;;11.14;70.25;100287.31;4361235;32;33807;-77
2022/09/21 06:21:46;;;;;;;11.38;7.28;;;;;;;11.49;69.04;100286.41;4357511;32;34291;-75
2022/09/21 06:24:14;;;;;;;9.77;7.43;;;;;;;11.82;69.00;100288.37;4347012;32;34351;-79
2022/09/21 06:26:42;;;;;;;8.07;6.18;;;;;;;12.16;67.10;100295.78;4347125;33;33827;-77
2022/09/21 06:29:09;;;;;;;8.00;6.15;;;;;;;12.36;66.98;100287.16;4346788;33;33493;-79
2022/09/21 06:31:36;;;;;;;8.82;6.70;;;;;;;12.65;65.52;100288.69;4346833;33;34233;-81
2022/09/21 06:34:04;;;;;;;8.57;6.18;;;;;;;12.37;67.38;100292.34;4346538;33;34290;-79
2022/09/21 06:36:31;;;;;;;8.10;6.18;;;;;;;12.61;67.41;100292.16;4341775;32;33821;-78
2022/09/21 06:38:59;;;;;;;7.53;6.00;;;;;;;13.11;64.51;100292.09;4351019;32;33745;-78
2022/09/21 06:41:26;;;;;;;8.02;6.18;;;;;;;12.84;65.84;100296.59;4352615;32;34374;-79
2022/09/21 06:43:55;;;;;;;7.30;6.00;;;;;;;13.34;64.67;100285.56;4358519;32;34332;-82
2022/09/21 06:46:23;;;;;;;7.72;6.12;;;;;;;12.63;67.10;100290.84;4346787;33;34337;-79
2022/09/21 06:48:51;;;;;;;7.72;5.72;;;;;;;12.71;66.58;100289.59;4347591;32;34633;-79
2022/09/21 06:51:20;;;;;;;7.50;5.82;;;;;;;13.05;65.91;100289.56;4342936;33;34177;-77
2022/09/21 06:53:54;;;;;;;7.60;5.95;;;;;;;12.96;66.76;100297.34;4346893;32;34225;-76
2022/09/21 06:56:22;;;;;;;7.57;6.00;;;;;;;13.22;64.36;100300.41;4359180;32;33445;-78
2022/09/21 06:58:51;;;;;;;7.72;6.35;;;;;;;12.89;65.10;100297.50;4349789;32;34927;-82
2022/09/21 07:01:18;;;;;;;7.55;6.03;;;;;;;13.22;65.51;100301.22;4354278;32;34324;-76
2022/09/21 07:03:50;;;;;;;7.45;5.95;;;;;;;13.16;65.62;100304.94;4349858;32;34996;-79
2022/09/21 07:06:19;;;;;;;7.95;6.03;;;;;;;13.59;63.42;100306.06;4358628;32;33696;-78
2022/09/21 07:08:46;;;;;;;6.47;5.18;;;;;;;13.99;62.38;100306.75;4351109;32;33803;-78
2022/09/21 07:11:40;;;;;;;8.13;6.12;;;;;;;14.15;62.39;100303.91;4351233;32;35358;-79
2022/09/21 07:14:08;;;;;;;7.10;5.78;;;;;;;13.49;63.94;100308.66;4349207;32;34564;-81
2022/09/21 07:16:36;;;;;;;6.90;5.35;;;;;;;13.94;63.19;100310.25;4349078;32;34600;-81
2022/09/21 07:19:04;;;;;;;7.15;5.45;;;;;;;14.13;62.09;100307.97;4346470;32;33882;-79
2022/09/21 07:21:38;;;;;;;6.47;5.00;;;;;;;14.02;62.91;100317.16;4355545;32;34355;-79
2022/09/21 07:24:06;;;;;;;10.38;6.18;;;;;;;13.79;63.11;100315.53;4360503;32;34841;-79
2022/09/21 07:26:38;;;;;;;8.43;6.35;;;;;;;14.16;63.27;100315.63;4356856;32;34712;-78
2022/09/21 07:29:06;;;;;;;8.73;6.03;;;;;;;13.95;63.42;100312.72;4351985;32;34669;-79
2022/09/21 07:31:33;;;;;;;7.43;5.25;;;;;;;14.63;60.50;100308.69;4359156;32;34234;-77
2022/09/21 07:34:01;;;;;;;6.32;5.03;;;;;;;14.96;59.74;100321.19;4346650;32;34932;-79
2022/09/21 07:36:29;;;;;;;6.75;5.47;;;;;;;14.83;59.30;100316.22;4357696;32;34131;-80
2022/09/21 07:38:57;;;;;;;6.05;5.03;;;;;;;14.01;63.36;100312.75;4359966;32;33532;-81
2022/09/21 07:41:24;;;;;;;6.28;5.22;;;;;;;14.33;62.13;100327.25;4351396;32;34256;-81
2022/09/21 07:43:52;;;;;;;6.65;5.18;;;;;;;15.14;59.51;100319.94;4358507;32;33679;-80
2022/09/21 07:46:19;;;;;;;6.25;5.00;;;;;;;14.75;61.11;100326.53;4360036;32;33572;-79
2022/09/21 07:48:47;;;;;;;7.15;5.55;;;;;;;14.42;62.01;100327.59;4355267;32;33863;-77
2022/09/21 07:51:15;;;;;;;8.05;6.03;;;;;;;14.34;62.43;100325.34;4353627;32;34356;-79
2022/09/21 07:53:45;;;;;;;8.75;6.43;;;;;;;15.43;58.92;100322.28;4360547;32;35001;-82
2022/09/21 07:56:16;;;;;;;7.60;5.53;;;;;;;15.01;61.76;100329.44;4359416;32;34406;-82
2022/09/21 08:01:31;;;;;;;6.03;4.90;;;;;;;15.16;58.56;100324.06;4359636;32;34862;-79
2022/09/21 08:03:59;;;;;;;7.10;5.47;;;;;;;15.17;58.04;100324.87;4355772;32;33804;-78
2022/09/21 08:06:29;;;;;;;5.87;5.00;;;;;;;15.03;60.02;100319.09;4359112;32;33906;-79
2022/09/21 08:08:56;;;;;;;6.93;5.47;;;;;;;15.11;58.89;100331.41;4357241;32;33823;-80
2022/09/21 08:11:26;;;;;;;7.45;5.28;;;;;;;15.34;58.26;100327.44;4357065;32;34329;-80
2022/09/21 08:13:56;;;;;;;5.93;4.65;;;;;;;15.68;57.03;100322.37;4345393;32;33736;-80
2022/09/21 08:16:26;;;;;;;5.85;4.70;;;;;;;15.78;58.15;100330.62;4358006;32;34566;-78
2022/09/21 08:18:54;;;;;;;5.82;4.57;;;;;;;16.13;56.91;100329.09;4357861;32;34498;-77
2022/09/21 08:21:21;;;;;;;7.37;5.05;;;;;;;15.96;57.67;100325.75;4355835;32;34136;-81
2022/09/21 08:23:49;;;;;;;5.62;4.62;;;;;;;16.36;55.40;100324.16;4357265;32;34220;-77
2022/09/21 08:26:18;;;;;;;5.57;4.40;;;;;;;16.54;54.17;100325.53;4358093;32;36527;-83
2022/09/21 08:28:48;;;;;;;5.18;4.25;;;;;;;16.23;55.77;100328.25;4359201;32;34161;-81
2022/09/21 08:31:18;;;;;;;6.15;4.20;;;;;;;15.98;57.30;100327.12;4359130;32;34363;-83
2022/09/21 08:33:46;;;;;;;7.30;3.90;;;;;;;16.09;57.62;100327.97;4358945;32;35012;-78
2022/09/21 08:36:14;;;;;;;5.75;4.15;;;;;;;16.64;54.95;100327.47;4344185;32;34772;-85
2022/09/21 08:38:42;;;;;;;5.20;4.10;;;;;;;16.91;54.38;100322.53;4358393;32;33682;-77
2022/09/21 08:41:19;;;;;;;5.03;3.87;;;;;;;15.88;56.94;100329.03;4364506;32;34631;-84
2022/09/21 08:44:06;;;;;;;4.25;3.35;;;;;;;16.13;56.67;100326.34;4362114;32;34023;-77
2022/09/21 08:46:35;;;;;;;5.82;3.50;;;;;;;16.78;55.47;100340.31;4360221;32;33829;-78
2022/09/21 08:49:16;;;;;;;4.80;3.53;;;;;;;16.23;55.86;100328.25;4363801;32;33981;-84
2022/09/21 08:52:13;;;;;;;4.25;3.35;;;;;;;16.62;55.32;100339.50;4358859;32;34210;-80
2022/09/21 08:54:51;;;;;;;4.68;3.28;;;;;;;16.76;54.52;100337.03;4345495;32;32725;-81
2022/09/21 08:57:19;;;;;;;3.83;3.03;;;;;;;16.27;55.66;100326.62;4354573;32;34480;-80
2022/09/21 08:59:48;;;;;;;4.43;3.22;;;;;;;16.64;54.95;100341.16;4354625;32;33650;-79
2022/09/21 09:02:53;;;;;;;7.18;3.15;;;;;;;16.93;54.46;100341.41;4358846;32;34837;-78
2022/09/21 09:05:32;;;;;;;4.85;3.33;;;;;;;17.27;53.77;100341.63;4361507;32;33929;-77
2022/09/21 09:08:03;;;;;;;4.60;3.42;;;;;;;16.90;55.49;100342.78;4346334;32;33650;-78
2022/09/21 09:10:54;;;;;;;5.20;3.40;;;;;;;16.99;53.06;100337.56;4362269;32;33961;-78
2022/09/21 09:13:31;;;;;;;4.80;3.30;;;;;;;17.04;51.74;100347.69;4347313;32;34245;-79
2022/09/21 09:16:14;;;;;;;5.78;3.70;;;;;;;17.08;52.87;100338.63;4358909;32;34052;-80
2022/09/21 09:18:45;;;;;;;4.75;3.72;;;;;;;16.36;54.36;100338.66;4360197;32;34465;-77
2022/09/21 09:21:21;;;;;;;4.37;3.47;;;;;;;16.70;55.34;100340.88;4342408;33;34061;-79
2022/09/21 09:24:05;;;;;;;4.72;3.47;;;;;;;16.82;53.26;100340.59;4332689;32;33702;-80
2022/09/21 09:26:41;;;;;;;4.43;3.12;;;;;;;16.37;56.35;100334.00;4328438;33;34029;-77
2022/09/21 09:29:28;;;;;;;3.55;2.75;;;;;;;16.94;53.77;100329.38;4342517;32;34148;-81
2022/09/21 09:31:58;;;;;;;6.12;3.12;;;;;;;15.61;54.86;100330.00;4352148;32;33611;-78
2022/09/21 09:34:31;;;;;;;3.90;2.70;;;;;;;16.05;55.76;100328.81;4337905;32;33714;-77
2022/09/21 09:37:08;;;;;;;6.85;3.15;;;;;;;16.62;54.56;100333.19;4346435;33;34116;-80
2022/09/21 09:39:35;;;;;;;3.78;3.10;;;;;;;16.02;54.90;100323.84;4335657;33;33516;-77
2022/09/21 09:42:22;;;;;;;4.05;2.95;;;;;;;15.61;55.62;100323.69;4334666;33;34380;-76
2022/09/21 09:45:21;;;;;;;4.12;2.72;;;;;;;16.25;56.19;100334.28;4347924;32;34733;-81
2022/09/21 09:48:11;;;;;;;3.58;2.70;;;;;;;16.75;54.04;100332.63;4346335;32;34110;-81
2022/09/21 09:50:39;;;;;;;4.35;2.83;;;;;;;16.75;54.20;100327.16;4343285;33;33467;-81
2022/09/21 09:53:12;;;;;;;3.67;2.60;;;;;;;16.26;54.22;100326.88;4346268;33;34550;-84
2022/09/21 09:55:42;;;;;;;5.05;3.05;;;;;;;16.77;54.58;100327.72;4346254;32;35073;-81
2022/09/21 09:58:16;;;;;;;4.30;2.97;;;;;;;16.22;54.96;100325.78;4333966;33;34269;-82
2022/09/21 10:00:45;;;;;;;4.57;2.62;;;;;;;16.84;54.24;100326.62;4346935;33;34473;-82
2022/09/21 10:03:18;;;;;;;4.07;2.67;;;;;;;16.99;53.51;100319.19;4333281;33;34835;-81
2022/09/21 10:05:46;;;;;;;4.32;2.85;;;;;;;17.07;52.59;100320.56;4333541;33;33961;-83
2022/09/21 10:08:33;;;;;;;3.80;2.60;;;;;;;16.99;54.12;100327.41;4333091;33;34069;-87
2022/09/21 10:11:01;;;;;;;3.72;2.45;;;;;;;17.04;51.90;100320.28;4347306;33;33750;-81
2022/09/21 10:13:31;;;;;;;3.60;2.22;;;;;;;17.42;51.11;100324.28;4346760;33;34660;-82
2022/09/21 10:16:18;;;;;;;3.15;2.30;;;;;;;17.81;51.27;100320.81;4335625;33;33952;-82
2022/09/21 10:18:48;;;;;;;2.85;2.28;;;;;;;17.62;51.09;100320.62;4346888;33;33819;-80
2022/09/21 10:21:48;;;;;;;2.83;2.15;;;;;;;18.43;48.73;100311.06;4340593;32;33671;-82
2022/09/21 10:24:24;;;;;;;3.00;2.40;;;;;;;18.59;48.40;100310.94;4332810;32;33727;-81
2022/09/21 10:27:10;;;;;;;3.58;2.40;;;;;;;18.37;48.80;100314.16;4339786;33;33760;-85
2022/09/21 10:29:46;;;;;;;3.50;2.50;;;;;;;17.07;51.11;100308.78;4359234;32;34086;-82
2022/09/21 10:32:15;;;;;;;3.25;2.40;;;;;;;16.84;51.97;100312.94;4337684;32;35092;-80
2022/09/21 10:35:11;;;;;;;3.12;2.47;;;;;;;16.82;52.24;100299.50;4353705;32;34867;-85
2022/09/21 10:37:45;;;;;;;3.05;2.33;;;;;;;16.88;51.83;100301.13;4352985;32;33740;-79
2022/09/21 10:40:18;;;;;;;4.33;2.63;;;;;;;18.04;50.18;100300.12;4349015;32;33899;-84
2022/09/21 10:42:57;;;;;;;3.67;2.43;;;;;;;16.67;52.87;100296.75;4354685;32;33891;-78
2022/09/21 10:45:30;;;;;;;2.80;2.15;;;;;;;17.35;52.20;100302.66;4330214;33;34700;-79
2022/09/21 10:48:04;;;;;;;2.60;1.98;;;;;;;17.88;51.17;100295.81;4324651;32;34333;-82
2022/09/21 10:50:38;;;;;;;2.75;2.17;;;;;;;18.07;49.37;100301.47;4355053;32;34342;-79
2022/09/21 10:53:08;;;;;;;3.25;1.90;;;;;;;17.13;50.58;100300.25;4355110;32;33767;-80
2022/09/21 10:55:38;;;;;;;4.47;2.35;;;;;;;17.13;50.24;100288.47;4351040;32;34873;-84
2022/09/21 10:58:19;;;;;;;2.60;1.77;;;;;;;18.04;51.64;100294.63;4351512;32;34986;-81
2022/09/21 11:00:50;;;;;;;2.08;1.83;;;;;;;18.15;49.34;100295.38;4350731;32;34181;-82
2022/09/21 11:03:56;;;;;;;2.47;1.70;;;;;;;18.40;51.10;100294.34;4356436;32;34586;-85
2022/09/21 11:06:36;;;;;;;1.85;1.65;;;;;;;18.48;47.65;100287.41;4329467;32;33795;-82
2022/09/21 11:09:22;;;;;;;3.00;2.05;;;;;;;18.16;46.93;100292.34;4335730;33;35010;-81
2022/09/21 11:11:57;;;;;;;2.55;1.85;;;;;;;17.79;48.81;100288.16;4358418;32;33807;-85
2022/09/21 11:14:37;;;;;;;2.72;1.98;;;;;;;18.01;49.73;100281.44;4352131;32;33712;-82
2022/09/21 11:17:18;;;;;;;2.15;1.60;;;;;;;17.25;50.74;100288.16;4351485;32;34065;-84
2022/09/21 11:19:51;;;;;;;3.12;1.60;;;;;;;17.96;48.52;100287.81;4347026;32;33754;-82
2022/09/21 11:22:31;;;;;;;1.90;1.40;;;;;;;18.35;48.89;100278.72;4347658;32;34169;-85
2022/09/21 11:25:17;;;;;;;2.00;1.45;;;;;;;18.46;47.08;100284.94;4338106;33;34020;-80
2022/09/21 11:27:48;;;;;;;1.25;1.15;;;;;;;17.93;47.59;100274.66;4348348;32;33818;-80
2022/09/21 11:30:17;;;;;;;1.40;1.30;;;;;;;17.89;46.21;100275.53;4348158;32;34976;-79
2022/09/21 11:33:01;;;;;;;1.45;1.27;;;;;;;18.12;46.20;100274.81;4343474;32;33787;-79
2022/09/21 11:35:49;;;;;;;1.95;1.25;;;;;;;17.59;46.95;100266.31;4358289;32;33393;-83
2022/09/21 11:38:45;;;;;;;1.70;1.10;;;;;;;17.99;45.19;100275.44;4352923;32;34103;-80
2022/09/21 11:41:18;;;;;;;;;;;;;;;17.86;42.63;100265.94;4357565;32;34182;-85
2022/09/21 11:44:02;;;;;;;1.48;1.30;;;;;;;17.85;43.93;100277.19;4349762;32;34707;-81
2022/09/21 11:46:45;;;;;;;2.03;1.17;;;;;;;17.70;45.34;100275.31;4352977;32;34512;-84
2022/09/21 11:49:38;;;;;;;1.45;1.20;;;;;;;17.53;46.62;100272.94;4335354;32;34664;-80
2022/09/21 11:52:37;;;;;;;1.62;1.30;;;;;;;17.66;44.25;100260.53;4355918;32;34151;-86
2022/09/21 11:55:05;;;;;;;1.92;1.20;;;;;;;18.38;47.17;100260.84;4351554;32;34231;-86